Hauptseite
METAR-TAF:

METAR-TAF

Flughäfen :

Leuchars, Schottland

Breite: 56-23N, Länge: 002-52W, Höhe: 12 m

Beobachtung

Neuester Wetterbericht von vor 11 Minuten, um 06:50 UTC
Wind 3 kt aus West/Südwest
Temperatur 11°C
Luftfeuchtigkeit 87%
Luftdruck 1020 hPa
Sichtweite 10 km oder mehr
keine Wolken unter 1500 m und keine Kumulonimbus oder Gewitterwolken

METAR: EGQL 210650Z 25003KT CAVOK 11/09 Q1020 BLU

Zeit: 08:01 (07:01 UTC)

Prognose

Neuester Wetterbericht von vor 2 Stunden und 20 Minuten, um 04:41 UTC
Gültige Prognose vom 21 um 06 UTC bis 21 um 15 UTC
Wind 4 kt aus Süd/Südwest
Sichtweite: 7000 m
trockener Dunst
Übergehend zu
vom 21 um 06 UTC bis 21 um 09 UTC
Sichtweite 10 km oder mehr
keine Wolken unter 1500 m und keine Kumulonimbus oder Gewitterwolken

TAF: EGQL 210441Z 2106/2115 21004KT 7000 HZ NSC BECMG 2106/2109 CAVOK

Wetterbeobachtungen und Prognosen von mehr als 4000 Flughäfen (METAR und TAF Bericht).

Die verfügbaren Stationen werden durch gelbe und rote Markierungen auf der Karte dargestellt.

Führen Sie die Maus auf sie, um den Namen der Station zu sehen.

Darauf klicken, um die Beobachtung von Wetterbeobachtungen und Prognosen zu sehen.

Um die Karte zu ändern : klicken Sie auf den grünen Tasten mit einem schwarzen Kreuz Zum Vergrößern, auf den grünen Button mit einem Gedankenstrich zu verkleinern, oder auf die grünen Pfeile für benachbarte Karten.


METAR-TAF: